createdAt,value
2023-03-12T00:00:20.860Z,35.10
2023-03-12T00:02:48.259Z,33.88
2023-03-12T00:05:15.428Z,35.97
2023-03-12T00:07:42.862Z,38.97
2023-03-12T00:10:11.168Z,38.05
2023-03-12T00:12:38.498Z,37.80
2023-03-12T00:15:06.706Z,36.17
2023-03-12T00:17:34.277Z,34.97
2023-03-12T00:20:01.404Z,32.60
2023-03-12T00:22:28.801Z,32.67
2023-03-12T00:24:56.777Z,31.75
2023-03-12T00:27:24.501Z,32.35
2023-03-12T00:29:51.737Z,31.63
2023-03-12T00:32:19.630Z,29.27
2023-03-12T00:34:53.997Z,28.10
2023-03-12T00:37:22.465Z,28.17
2023-03-12T00:39:49.611Z,27.85
2023-03-12T00:42:17.417Z,26.55
2023-03-12T00:44:45.035Z,27.73
2023-03-12T00:47:12.481Z,28.75
2023-03-12T00:49:39.868Z,29.85
2023-03-12T00:52:07.292Z,28.40
2023-03-12T00:54:34.726Z,27.13
2023-03-12T00:57:02.143Z,27.88
2023-03-12T00:59:29.598Z,27.13
2023-03-12T01:01:57.220Z,27.15
2023-03-12T01:04:24.444Z,25.33
2023-03-12T01:06:52.136Z,24.83
2023-03-12T01:09:19.691Z,24.73
2023-03-12T01:11:46.785Z,22.95
2023-03-12T01:14:14.232Z,25.33
2023-03-12T01:16:41.282Z,24.77
2023-03-12T01:19:08.815Z,24.58
2023-03-12T01:21:36.235Z,24.42
2023-03-12T01:24:03.979Z,24.73
2023-03-12T01:26:31.422Z,22.98
2023-03-12T01:28:59.228Z,25.17
2023-03-12T01:31:26.946Z,23.55
2023-03-12T01:33:54.746Z,24.33
2023-03-12T01:36:26.568Z,25.52
2023-03-12T01:38:57.077Z,25.15
2023-03-12T01:41:25.506Z,24.67
2023-03-12T01:43:53.505Z,25.60
2023-03-12T01:46:35.992Z,25.23
2023-03-12T01:49:15.735Z,27.70
2023-03-12T01:51:59.774Z,29.60
2023-03-12T01:54:57.947Z,30.02
2023-03-12T01:57:36.741Z,29.35
2023-03-12T02:00:11.360Z,28.80
2023-03-12T02:02:43.159Z,28.48
2023-03-12T02:05:16.853Z,27.17
2023-03-12T02:07:44.384Z,25.77
2023-03-12T02:10:11.796Z,26.45
2023-03-12T02:12:39.614Z,21.33
2023-03-12T02:15:07.799Z,20.75
2023-03-12T02:17:36.430Z,21.20
2023-03-12T02:20:13.249Z,20.92
2023-03-12T02:22:41.641Z,20.00
2023-03-12T02:25:31.168Z,24.23
2023-03-12T02:27:59.484Z,23.50
2023-03-12T02:30:27.856Z,26.80
2023-03-12T02:32:55.640Z,26.83
2023-03-12T02:35:23.123Z,27.95
2023-03-12T02:37:51.840Z,29.02
2023-03-12T02:40:40.174Z,29.73
2023-03-12T02:43:07.947Z,32.97
2023-03-12T02:45:36.129Z,35.45
2023-03-12T02:48:04.590Z,36.13
2023-03-12T02:50:31.644Z,38.15
2023-03-12T02:52:58.895Z,37.72
2023-03-12T02:55:26.357Z,39.50
2023-03-12T02:57:54.216Z,38.75
2023-03-12T03:00:21.975Z,37.78
2023-03-12T03:02:52.009Z,38.10
2023-03-12T03:05:20.519Z,39.83
2023-03-12T03:07:47.786Z,39.55
2023-03-12T03:10:17.262Z,40.40
2023-03-12T03:12:44.515Z,40.72
2023-03-12T03:15:12.395Z,40.30
2023-03-12T03:17:40.651Z,40.70
2023-03-12T03:20:11.151Z,34.10
2023-03-12T03:22:39.295Z,35.50
2023-03-12T03:25:07.210Z,31.90
2023-03-12T03:27:34.198Z,28.70
2023-03-12T03:30:02.116Z,33.50
2023-03-12T03:32:32.789Z,36.15
2023-03-12T03:35:00.360Z,35.83
2023-03-12T03:37:28.400Z,30.95
2023-03-12T03:39:55.587Z,30.33
2023-03-12T03:42:23.027Z,27.33
2023-03-12T03:44:50.460Z,21.42
2023-03-12T03:47:17.741Z,22.10
2023-03-12T03:49:44.966Z,24.63
2023-03-12T03:52:12.921Z,22.27
2023-03-12T03:54:40.498Z,19.10
2023-03-12T03:57:08.354Z,21.30
2023-03-12T03:59:35.525Z,20.02
2023-03-12T04:02:03.965Z,18.38
2023-03-12T04:04:34.943Z,21.85
2023-03-12T04:07:02.373Z,21.58
2023-03-12T04:09:31.090Z,22.33
2023-03-12T04:11:58.475Z,18.27
2023-03-12T04:14:26.115Z,19.67
2023-03-12T04:16:53.482Z,22.55
2023-03-12T04:19:21.082Z,19.50
2023-03-12T04:21:48.894Z,19.73
2023-03-12T04:24:17.117Z,21.60
2023-03-12T04:26:44.921Z,19.73
2023-03-12T04:29:14.160Z,14.63
2023-03-12T04:31:42.048Z,16.55
2023-03-12T04:34:10.781Z,19.55
2023-03-12T04:36:39.229Z,19.52
2023-03-12T04:39:07.316Z,19.83
2023-03-12T04:41:35.613Z,21.27
2023-03-12T04:44:13.671Z,19.08
2023-03-12T04:46:42.916Z,17.05
2023-03-12T04:49:13.216Z,17.17
2023-03-12T04:51:42.609Z,16.63
2023-03-12T04:54:10.265Z,17.33
2023-03-12T04:56:39.472Z,14.30
2023-03-12T04:59:06.752Z,15.57
2023-03-12T05:01:35.405Z,17.05
2023-03-12T05:04:07.654Z,15.35
2023-03-12T05:06:35.005Z,15.85
2023-03-12T05:09:02.863Z,18.33
2023-03-12T05:11:30.320Z,20.23
2023-03-12T05:13:57.978Z,18.40
2023-03-12T05:16:25.422Z,17.50
2023-03-12T05:18:53.127Z,16.98
2023-03-12T05:21:22.243Z,14.88
2023-03-12T05:23:52.778Z,13.98
2023-03-12T05:26:31.725Z,13.10
2023-03-12T05:29:11.287Z,12.82
2023-03-12T05:31:39.314Z,12.48
2023-03-12T05:34:07.610Z,10.20
2023-03-12T05:36:38.995Z,9.48
2023-03-12T05:39:06.773Z,6.75
2023-03-12T05:41:34.941Z,6.55
2023-03-12T05:44:13.410Z,5.90
2023-03-12T05:46:42.421Z,5.82
2023-03-12T05:49:10.469Z,6.75
2023-03-12T05:51:37.863Z,5.43
2023-03-12T05:54:05.756Z,4.63
2023-03-12T05:56:33.327Z,4.70
2023-03-12T05:59:00.426Z,5.20
2023-03-12T06:01:29.210Z,5.00
2023-03-12T06:03:58.997Z,4.80
2023-03-12T06:06:26.962Z,4.60
2023-03-12T06:08:54.841Z,4.32
2023-03-12T06:11:22.015Z,3.65
2023-03-12T06:13:49.651Z,3.10
2023-03-12T06:16:21.670Z,3.03
2023-03-12T06:18:52.456Z,2.70
2023-03-12T06:21:22.864Z,2.35
2023-03-12T06:23:52.195Z,2.90
2023-03-12T06:26:33.945Z,3.85
2023-03-12T06:29:01.170Z,3.85
2023-03-12T06:31:28.960Z,4.13
2023-03-12T06:33:56.413Z,3.65
2023-03-12T06:36:24.267Z,3.10
2023-03-12T06:38:51.762Z,3.13
2023-03-12T06:41:19.353Z,3.47
2023-03-12T06:43:46.563Z,2.88
2023-03-12T06:46:16.330Z,5.00
2023-03-12T06:48:46.126Z,2.92
2023-03-12T06:51:14.211Z,3.40
2023-03-12T06:53:42.634Z,5.15
2023-03-12T06:56:10.409Z,5.13
2023-03-12T06:58:38.030Z,4.93
2023-03-12T07:01:05.377Z,3.15
2023-03-12T07:03:33.091Z,2.90
2023-03-12T07:06:00.397Z,3.78
2023-03-12T07:08:31.065Z,3.13
2023-03-12T07:11:01.485Z,2.90
2023-03-12T07:13:30.260Z,2.63
2023-03-12T07:15:57.341Z,2.00
2023-03-12T07:18:24.761Z,1.48
2023-03-12T07:20:52.101Z,1.63
2023-03-12T07:23:19.153Z,2.65
2023-03-12T07:25:48.102Z,2.33
2023-03-12T07:28:16.107Z,2.90
2023-03-12T07:30:43.734Z,2.17
2023-03-12T07:33:12.213Z,2.65
2023-03-12T07:35:39.839Z,2.60
2023-03-12T07:38:08.182Z,2.05
2023-03-12T07:40:36.063Z,2.28
2023-03-12T07:43:04.194Z,2.60
2023-03-12T07:45:32.705Z,3.17
2023-03-12T07:48:00.194Z,2.58
2023-03-12T07:50:27.754Z,2.10
2023-03-12T07:52:55.097Z,2.42
2023-03-12T07:55:22.686Z,2.70
2023-03-12T07:57:49.854Z,2.33
2023-03-12T08:00:17.753Z,2.40
2023-03-12T08:02:45.690Z,2.22
2023-03-12T08:05:13.723Z,2.20
2023-03-12T08:07:40.961Z,2.47
2023-03-12T08:10:08.777Z,2.53
2023-03-12T08:12:37.336Z,2.22
2023-03-12T08:15:06.084Z,1.73
2023-03-12T08:17:33.391Z,2.10
2023-03-12T08:20:00.443Z,2.30
2023-03-12T08:22:27.967Z,1.40
2023-03-12T08:24:55.420Z,1.70
2023-03-12T08:27:22.598Z,1.50
2023-03-12T08:29:49.602Z,1.27
2023-03-12T08:32:17.104Z,1.17
2023-03-12T08:34:44.801Z,1.60
2023-03-12T08:37:11.896Z,1.67
2023-03-12T08:39:39.182Z,1.17
2023-03-12T08:42:07.519Z,1.25
2023-03-12T08:44:34.848Z,1.45
2023-03-12T08:47:02.537Z,1.40
2023-03-12T08:49:29.694Z,1.63
2023-03-12T08:51:56.932Z,1.50
2023-03-12T08:54:24.073Z,1.40
2023-03-12T08:56:51.903Z,1.85
2023-03-12T08:59:20.374Z,1.50
2023-03-12T09:01:47.654Z,1.23
2023-03-12T09:04:15.187Z,1.20
2023-03-12T09:06:42.619Z,1.35
2023-03-12T09:09:10.365Z,1.25
2023-03-12T09:11:39.529Z,1.75
2023-03-12T09:15:01.137Z,1.67
2023-03-12T09:16:54.482Z,1.77
2023-03-12T09:19:22.203Z,2.00
2023-03-12T09:21:49.397Z,2.28
2023-03-12T09:24:16.816Z,2.40
2023-03-12T09:26:43.864Z,3.00
2023-03-12T09:29:11.299Z,2.55
2023-03-12T09:31:38.934Z,2.53
2023-03-12T09:34:06.179Z,2.75
2023-03-12T09:36:33.402Z,3.50
2023-03-12T09:39:00.944Z,2.63
2023-03-12T09:41:30.363Z,3.45
2023-03-12T09:44:30.402Z,3.80
2023-03-12T09:47:04.300Z,3.75
2023-03-12T09:49:41.950Z,3.40
2023-03-12T09:52:24.898Z,3.50
2023-03-12T09:54:57.161Z,2.75
2023-03-12T09:57:25.557Z,2.58
2023-03-12T09:59:52.842Z,2.47
2023-03-12T10:02:42.030Z,2.78
2023-03-12T10:05:42.902Z,2.22
2023-03-12T10:08:46.509Z,1.75
2023-03-12T10:13:54.767Z,1.63
2023-03-12T10:16:47.098Z,1.70
2023-03-12T10:19:26.740Z,2.13
2023-03-12T10:22:14.154Z,2.45
2023-03-12T10:25:14.356Z,2.20
2023-03-12T10:27:42.166Z,2.72
2023-03-12T10:30:20.773Z,2.15
2023-03-12T10:32:54.221Z,1.98
2023-03-12T10:35:23.312Z,2.30
2023-03-12T10:37:56.967Z,1.98
2023-03-12T10:40:34.211Z,1.80
2023-03-12T10:43:02.003Z,2.15
2023-03-12T10:45:50.025Z,2.42
2023-03-12T10:48:22.624Z,2.80
2023-03-12T10:51:09.462Z,3.05
2023-03-12T10:53:42.545Z,3.70
2023-03-12T10:58:45.704Z,2.20
2023-03-12T11:01:21.990Z,2.20
2023-03-12T11:03:51.181Z,2.38
2023-03-12T11:06:29.075Z,2.15
2023-03-12T11:09:17.025Z,4.60
2023-03-12T11:11:47.169Z,7.85
2023-03-12T11:14:17.470Z,9.85
2023-03-12T11:16:44.651Z,8.93
2023-03-12T11:19:14.085Z,8.57
2023-03-12T11:21:41.577Z,9.60
2023-03-12T11:24:12.409Z,8.75
2023-03-12T11:26:53.206Z,10.02
2023-03-12T11:29:39.396Z,6.55
2023-03-12T11:32:15.953Z,4.05
2023-03-12T11:34:47.276Z,4.00
2023-03-12T11:37:36.910Z,3.90
2023-03-12T11:40:33.610Z,5.90
2023-03-12T11:43:43.372Z,4.43
2023-03-12T11:46:29.980Z,4.15
2023-03-12T11:49:18.268Z,5.53
2023-03-12T11:52:21.039Z,9.35
2023-03-12T11:54:53.305Z,8.23
2023-03-12T11:57:39.154Z,5.15
2023-03-12T12:00:12.802Z,3.75
2023-03-12T12:06:04.060Z,3.85
2023-03-12T12:08:58.743Z,3.10
2023-03-12T12:11:35.711Z,3.40
2023-03-12T12:14:34.944Z,3.60
2023-03-12T12:17:25.323Z,3.30
2023-03-12T12:20:09.333Z,3.97
2023-03-12T12:22:52.663Z,4.30
2023-03-12T12:28:08.226Z,3.92
2023-03-12T12:30:41.195Z,4.43
2023-03-12T12:33:46.221Z,6.45
2023-03-12T12:36:13.983Z,5.03
2023-03-12T12:38:44.286Z,4.95
2023-03-12T12:41:16.325Z,5.55
2023-03-12T12:43:51.453Z,5.77
2023-03-12T12:46:25.088Z,5.60
2023-03-12T12:48:55.813Z,4.72
2023-03-12T12:51:29.854Z,4.70
2023-03-12T12:54:01.635Z,3.50
2023-03-12T12:56:59.202Z,3.00
2023-03-12T12:59:31.478Z,2.70
2023-03-12T13:01:59.763Z,3.28
2023-03-12T13:04:36.825Z,3.88
2023-03-12T13:07:14.010Z,4.75
2023-03-12T13:09:52.141Z,4.10
2023-03-12T13:12:25.857Z,4.18
2023-03-12T13:14:53.980Z,3.88
2023-03-12T13:17:29.150Z,3.05
2023-03-12T13:20:20.453Z,2.60
2023-03-12T13:23:13.001Z,3.17
2023-03-12T13:26:08.282Z,3.20
2023-03-12T13:28:40.878Z,3.80
2023-03-12T13:31:15.155Z,3.90
2023-03-12T13:33:45.209Z,3.78
2023-03-12T13:36:15.708Z,3.15
2023-03-12T13:39:00.273Z,3.40
2023-03-12T13:41:34.761Z,4.05
2023-03-12T13:44:34.453Z,4.38
2023-03-12T13:47:10.730Z,5.10
2023-03-12T13:50:01.316Z,3.78
2023-03-12T13:52:40.672Z,2.20
2023-03-12T13:55:14.401Z,2.00
2023-03-12T13:57:45.773Z,3.28
2023-03-12T14:00:26.914Z,3.47
2023-03-12T14:03:22.593Z,3.25
2023-03-12T14:06:19.965Z,3.33
2023-03-12T14:09:11.365Z,3.60
2023-03-12T14:12:09.012Z,2.97
2023-03-12T14:14:49.079Z,3.80
2023-03-12T14:17:21.567Z,22.08
2023-03-12T14:19:52.708Z,10.50
2023-03-12T14:22:22.596Z,9.00
2023-03-12T14:25:01.614Z,8.32
2023-03-12T14:27:33.134Z,8.90
2023-03-12T14:30:12.230Z,8.93
2023-03-12T14:32:39.647Z,4.35
2023-03-12T14:35:46.978Z,1.73
2023-03-12T14:38:21.972Z,2.35
2023-03-12T14:41:29.105Z,2.03
2023-03-12T14:44:03.718Z,1.42
2023-03-12T14:46:31.030Z,1.60
2023-03-12T14:48:58.323Z,1.77
2023-03-12T14:51:29.381Z,1.55
2023-03-12T14:53:57.146Z,1.00
2023-03-12T14:56:33.137Z,1.70
2023-03-12T14:59:02.594Z,1.58
2023-03-12T15:01:31.809Z,1.60
2023-03-12T15:04:04.141Z,1.63
2023-03-12T15:06:37.765Z,2.23
2023-03-12T15:09:06.421Z,1.58
2023-03-12T15:11:34.983Z,2.03
2023-03-12T15:14:07.559Z,2.10
2023-03-12T15:16:34.957Z,1.85
2023-03-12T15:19:02.697Z,1.70
2023-03-12T15:21:34.581Z,2.22
2023-03-12T15:24:02.593Z,1.70
2023-03-12T15:26:31.863Z,1.58
2023-03-12T15:29:03.230Z,1.70
2023-03-12T15:31:44.049Z,1.42
2023-03-12T15:34:16.366Z,1.60
2023-03-12T15:36:48.199Z,1.88
2023-03-12T15:39:32.934Z,2.83
2023-03-12T15:42:10.228Z,2.75
2023-03-12T15:44:46.232Z,2.50
2023-03-12T15:47:21.680Z,1.80
2023-03-12T15:49:53.234Z,1.90
2023-03-12T15:52:24.478Z,1.90
2023-03-12T15:55:05.504Z,1.60
2023-03-12T15:57:34.361Z,1.80
2023-03-12T16:00:31.622Z,1.58
2023-03-12T16:03:00.518Z,1.95
2023-03-12T16:05:30.608Z,1.70
2023-03-12T16:07:57.967Z,1.60
2023-03-12T16:10:26.741Z,1.67
2023-03-12T16:13:03.594Z,2.40
2023-03-12T16:15:33.049Z,1.85
2023-03-12T16:18:00.554Z,1.73
2023-03-12T16:20:27.931Z,1.55
2023-03-12T16:22:55.356Z,1.45
2023-03-12T16:25:23.314Z,1.55
2023-03-12T16:27:54.980Z,1.40
2023-03-12T16:30:30.776Z,1.52
2023-03-12T16:32:58.580Z,1.58
2023-03-12T16:35:28.034Z,1.52
2023-03-12T16:37:55.788Z,1.50
2023-03-12T16:40:33.038Z,1.60
2023-03-12T16:43:03.218Z,1.80
2023-03-12T16:45:30.880Z,1.75
2023-03-12T16:48:03.361Z,1.60
2023-03-12T16:50:30.965Z,1.58
2023-03-12T16:52:58.192Z,1.10
2023-03-12T16:55:29.822Z,1.10
2023-03-12T16:58:01.062Z,1.20
2023-03-12T17:00:30.124Z,1.30
2023-03-12T17:02:57.797Z,1.67
2023-03-12T17:05:28.853Z,1.80
2023-03-12T17:07:56.568Z,1.67
2023-03-12T17:10:23.978Z,1.80
2023-03-12T17:12:51.233Z,1.77
2023-03-12T17:15:30.717Z,1.73
2023-03-12T17:18:02.824Z,2.08
2023-03-12T17:20:35.754Z,1.83
2023-03-12T17:23:03.594Z,2.08
2023-03-12T17:25:33.009Z,2.17
2023-03-12T17:28:00.285Z,1.88
2023-03-12T17:30:28.674Z,2.10
2023-03-12T17:33:09.153Z,2.15
2023-03-12T17:35:36.522Z,1.90
2023-03-12T17:38:03.785Z,3.17
2023-03-12T17:40:31.257Z,2.30
2023-03-12T17:42:58.682Z,2.17
2023-03-12T17:45:25.974Z,1.95
2023-03-12T17:47:53.490Z,2.60
2023-03-12T17:50:20.575Z,2.80
2023-03-12T17:52:48.163Z,2.97
2023-03-12T17:55:15.254Z,2.83
2023-03-12T17:57:44.741Z,3.03
2023-03-12T18:00:12.625Z,3.15
2023-03-12T18:02:40.217Z,3.35
2023-03-12T18:05:08.931Z,3.28
2023-03-12T18:07:36.301Z,3.25
2023-03-12T18:10:05.725Z,2.90
2023-03-12T18:12:32.979Z,3.40
2023-03-12T18:15:00.843Z,2.15
2023-03-12T18:17:28.060Z,1.85
2023-03-12T18:19:55.201Z,1.17
2023-03-12T18:22:22.874Z,1.20
2023-03-12T18:24:50.628Z,0.85
2023-03-12T18:27:17.740Z,1.17
2023-03-12T18:29:44.889Z,1.90
2023-03-12T18:32:12.229Z,1.65
2023-03-12T18:34:42.064Z,1.48
2023-03-12T18:37:09.296Z,1.38
2023-03-12T18:39:36.603Z,1.27
2023-03-12T18:42:03.737Z,0.90
2023-03-12T18:44:31.219Z,0.88
2023-03-12T18:46:58.382Z,1.08
2023-03-12T18:49:26.087Z,1.20
2023-03-12T18:51:55.664Z,1.20
2023-03-12T18:54:24.669Z,0.93
2023-03-12T18:56:52.078Z,0.80
2023-03-12T18:59:19.592Z,1.10
2023-03-12T19:01:46.921Z,1.10
2023-03-12T19:04:16.575Z,1.20
2023-03-12T19:06:50.873Z,1.30
2023-03-12T19:09:19.273Z,1.10
2023-03-12T19:11:47.966Z,1.40
2023-03-12T19:14:15.277Z,1.20
2023-03-12T19:16:42.916Z,1.40
2023-03-12T19:19:10.657Z,1.42
2023-03-12T19:21:37.786Z,1.20
2023-03-12T19:24:05.005Z,1.02
2023-03-12T19:26:32.182Z,1.25
2023-03-12T19:28:59.605Z,1.52
2023-03-12T19:31:26.819Z,1.42
2023-03-12T19:33:54.267Z,1.15
2023-03-12T19:36:21.617Z,1.08
2023-03-12T19:38:49.079Z,1.50
2023-03-12T19:41:17.097Z,1.00
2023-03-12T19:43:44.475Z,1.02
2023-03-12T19:46:11.790Z,1.13
2023-03-12T19:48:39.281Z,1.17
2023-03-12T19:51:10.430Z,1.10
2023-03-12T19:53:37.956Z,1.02
2023-03-12T19:56:05.690Z,1.05
2023-03-12T19:58:32.764Z,1.05
2023-03-12T20:01:00.891Z,1.00
2023-03-12T20:03:28.543Z,1.25
2023-03-12T20:05:55.968Z,1.10
2023-03-12T20:08:26.083Z,1.20
2023-03-12T20:10:53.408Z,0.98
2023-03-12T20:13:20.501Z,1.20
2023-03-12T20:15:48.495Z,1.55
2023-03-12T20:18:15.964Z,1.73
2023-03-12T20:20:43.319Z,1.60
2023-03-12T20:23:10.903Z,1.90
2023-03-12T20:25:41.652Z,1.20
2023-03-12T20:28:10.811Z,1.92
2023-03-12T20:30:40.511Z,1.48
2023-03-12T20:33:08.236Z,1.13
2023-03-12T20:35:36.138Z,0.90
2023-03-12T20:38:03.484Z,1.10
2023-03-12T20:40:30.805Z,1.20
2023-03-12T20:42:58.524Z,1.05
2023-03-12T20:45:25.616Z,1.10
2023-03-12T20:47:53.425Z,1.08
2023-03-12T20:50:20.635Z,1.02
2023-03-12T20:52:47.759Z,1.40
2023-03-12T20:55:15.384Z,1.15
2023-03-12T20:57:42.899Z,1.30
2023-03-12T21:00:11.169Z,1.00
2023-03-12T21:02:38.699Z,1.17
2023-03-12T21:05:06.226Z,0.90
2023-03-12T21:07:33.960Z,1.20
2023-03-12T21:10:01.244Z,1.45
2023-03-12T21:12:28.326Z,0.85
2023-03-12T21:14:55.575Z,0.40
2023-03-12T21:17:23.141Z,0.90
2023-03-12T21:19:50.623Z,1.20
2023-03-12T21:22:17.752Z,0.85
2023-03-12T21:24:45.087Z,1.00
2023-03-12T21:27:12.671Z,1.20
2023-03-12T21:29:40.253Z,1.27
2023-03-12T21:32:07.677Z,1.20
2023-03-12T21:34:34.732Z,1.30
2023-03-12T21:37:02.149Z,1.50
2023-03-12T21:39:29.340Z,1.10
2023-03-12T21:41:56.663Z,1.40
2023-03-12T21:44:23.909Z,1.30
2023-03-12T21:46:51.958Z,1.10
2023-03-12T21:49:19.577Z,0.90
2023-03-12T21:51:47.309Z,0.85
2023-03-12T21:54:14.695Z,0.80
2023-03-12T21:56:42.112Z,0.80
2023-03-12T21:59:10.666Z,0.70
2023-03-12T22:01:38.142Z,1.00
2023-03-12T22:04:05.631Z,0.80
2023-03-12T22:06:32.932Z,0.88
2023-03-12T22:09:00.117Z,1.10
2023-03-12T22:11:27.466Z,0.90
2023-03-12T22:13:54.586Z,0.73
2023-03-12T22:16:22.146Z,0.73
2023-03-12T22:18:49.974Z,0.82
2023-03-12T22:21:18.659Z,1.30
2023-03-12T22:23:50.995Z,1.05
2023-03-12T22:26:19.508Z,1.08
2023-03-12T22:28:54.885Z,1.13
2023-03-12T22:31:23.149Z,1.15
2023-03-12T22:33:50.739Z,1.17
2023-03-12T22:36:18.218Z,1.27
2023-03-12T22:38:47.740Z,1.00
2023-03-12T22:41:19.444Z,1.15
2023-03-12T22:43:47.328Z,1.45
2023-03-12T22:46:16.211Z,1.65
2023-03-12T22:48:44.379Z,1.20
2023-03-12T22:51:11.907Z,1.33
2023-03-12T22:53:39.217Z,1.05
2023-03-12T22:56:08.319Z,1.15
2023-03-12T22:58:35.528Z,1.58
2023-03-12T23:01:08.299Z,1.42
2023-03-12T23:03:36.298Z,1.10
2023-03-12T23:06:03.674Z,1.65
2023-03-12T23:08:31.213Z,1.20
2023-03-12T23:11:00.440Z,1.63
2023-03-12T23:13:28.626Z,1.83
2023-03-12T23:16:02.764Z,2.00
2023-03-12T23:18:30.262Z,2.40
2023-03-12T23:20:59.331Z,2.40
2023-03-12T23:23:26.663Z,2.20
2023-03-12T23:25:55.483Z,2.22
2023-03-12T23:28:22.800Z,2.00
2023-03-12T23:31:00.986Z,2.03
2023-03-12T23:33:28.479Z,2.17
2023-03-12T23:36:03.301Z,2.13
2023-03-12T23:38:31.005Z,1.83
2023-03-12T23:41:18.008Z,2.20
2023-03-12T23:43:45.202Z,2.30
2023-03-12T23:46:13.307Z,1.60
2023-03-12T23:48:40.953Z,1.77
2023-03-12T23:51:11.134Z,2.00
2023-03-12T23:53:39.457Z,1.75
2023-03-12T23:56:08.968Z,1.50
2023-03-12T23:58:36.712Z,1.50
